sensor_id;sensor_type;location;lat;lon;timestamp;P1;durP1;ratioP1;P2;durP2;ratioP2
65471;SDS011;52068;50.710;14.492;2024-02-23T00:02:13;4.53;;;2.70;;
65471;SDS011;52068;50.710;14.492;2024-02-23T00:04:39;2.75;;;2.40;;
65471;SDS011;52068;50.710;14.492;2024-02-23T00:07:04;5.13;;;2.38;;
65471;SDS011;52068;50.710;14.492;2024-02-23T00:09:29;3.60;;;2.67;;
65471;SDS011;52068;50.710;14.492;2024-02-23T00:11:55;2.58;;;2.38;;
65471;SDS011;52068;50.710;14.492;2024-02-23T00:14:20;4.28;;;2.47;;
65471;SDS011;52068;50.710;14.492;2024-02-23T00:16:46;4.78;;;2.63;;
65471;SDS011;52068;50.710;14.492;2024-02-23T00:19:11;4.20;;;2.42;;
65471;SDS011;52068;50.710;14.492;2024-02-23T00:21:37;2.90;;;2.20;;
65471;SDS011;52068;50.710;14.492;2024-02-23T00:24:03;2.60;;;2.40;;
65471;SDS011;52068;50.710;14.492;2024-02-23T00:26:30;5.03;;;2.42;;
65471;SDS011;52068;50.710;14.492;2024-02-23T00:28:55;4.10;;;2.45;;
65471;SDS011;52068;50.710;14.492;2024-02-23T00:31:21;3.50;;;2.22;;
65471;SDS011;52068;50.710;14.492;2024-02-23T00:33:46;4.50;;;2.20;;
65471;SDS011;52068;50.710;14.492;2024-02-23T00:36:12;3.15;;;2.10;;
65471;SDS011;52068;50.710;14.492;2024-02-23T00:38:37;3.33;;;2.50;;
65471;SDS011;52068;50.710;14.492;2024-02-23T00:41:03;5.07;;;2.78;;
65471;SDS011;52068;50.710;14.492;2024-02-23T00:43:28;2.95;;;2.40;;
65471;SDS011;52068;50.710;14.492;2024-02-23T00:45:56;2.38;;;2.10;;
65471;SDS011;52068;50.710;14.492;2024-02-23T00:48:21;2.60;;;2.30;;
65471;SDS011;52068;50.710;14.492;2024-02-23T00:50:47;2.70;;;2.00;;
65471;SDS011;52068;50.710;14.492;2024-02-23T00:53:12;2.45;;;2.22;;
65471;SDS011;52068;50.710;14.492;2024-02-23T00:55:37;2.20;;;2.00;;
65471;SDS011;52068;50.710;14.492;2024-02-23T00:58:03;2.63;;;2.33;;
65471;SDS011;52068;50.710;14.492;2024-02-23T01:00:28;2.50;;;2.30;;
65471;SDS011;52068;50.710;14.492;2024-02-23T01:02:54;3.15;;;1.90;;
65471;SDS011;52068;50.710;14.492;2024-02-23T01:05:19;2.35;;;2.00;;
65471;SDS011;52068;50.710;14.492;2024-02-23T01:07:45;2.67;;;2.10;;
65471;SDS011;52068;50.710;14.492;2024-02-23T01:10:10;2.08;;;1.80;;
65471;SDS011;52068;50.710;14.492;2024-02-23T01:12:36;2.60;;;2.10;;
65471;SDS011;52068;50.710;14.492;2024-02-23T01:15:01;2.13;;;1.92;;
65471;SDS011;52068;50.710;14.492;2024-02-23T01:17:27;2.35;;;1.90;;
65471;SDS011;52068;50.710;14.492;2024-02-23T01:19:52;2.35;;;1.92;;
65471;SDS011;52068;50.710;14.492;2024-02-23T01:22:18;3.35;;;1.90;;
65471;SDS011;52068;50.710;14.492;2024-02-23T01:24:43;4.05;;;2.08;;
65471;SDS011;52068;50.710;14.492;2024-02-23T01:27:09;4.00;;;1.90;;
65471;SDS011;52068;50.710;14.492;2024-02-23T01:29:34;2.10;;;1.80;;
65471;SDS011;52068;50.710;14.492;2024-02-23T01:31:59;2.03;;;1.80;;
65471;SDS011;52068;50.710;14.492;2024-02-23T01:34:25;2.08;;;1.88;;
65471;SDS011;52068;50.710;14.492;2024-02-23T01:36:50;2.85;;;1.95;;
65471;SDS011;52068;50.710;14.492;2024-02-23T01:39:16;2.30;;;2.00;;
65471;SDS011;52068;50.710;14.492;2024-02-23T01:41:41;1.88;;;1.67;;
65471;SDS011;52068;50.710;14.492;2024-02-23T01:44:08;2.53;;;1.90;;
65471;SDS011;52068;50.710;14.492;2024-02-23T01:46:34;2.00;;;1.80;;
65471;SDS011;52068;50.710;14.492;2024-02-23T01:49:00;3.78;;;1.85;;
65471;SDS011;52068;50.710;14.492;2024-02-23T01:51:26;2.05;;;1.85;;
65471;SDS011;52068;50.710;14.492;2024-02-23T01:53:51;2.80;;;2.00;;
65471;SDS011;52068;50.710;14.492;2024-02-23T01:56:17;2.15;;;1.90;;
65471;SDS011;52068;50.710;14.492;2024-02-23T01:58:43;2.00;;;1.60;;
65471;SDS011;52068;50.710;14.492;2024-02-23T02:01:09;3.95;;;2.00;;
65471;SDS011;52068;50.710;14.492;2024-02-23T02:03:35;2.35;;;2.00;;
65471;SDS011;52068;50.710;14.492;2024-02-23T02:06:03;2.03;;;1.83;;
65471;SDS011;52068;50.710;14.492;2024-02-23T02:08:29;1.90;;;1.80;;
65471;SDS011;52068;50.710;14.492;2024-02-23T02:10:55;2.20;;;1.73;;
65471;SDS011;52068;50.710;14.492;2024-02-23T02:13:20;1.98;;;1.77;;
65471;SDS011;52068;50.710;14.492;2024-02-23T02:15:45;1.95;;;1.75;;
65471;SDS011;52068;50.710;14.492;2024-02-23T02:18:11;4.53;;;1.98;;
65471;SDS011;52068;50.710;14.492;2024-02-23T02:20:36;1.95;;;1.73;;
65471;SDS011;52068;50.710;14.492;2024-02-23T02:23:04;2.90;;;1.85;;
65471;SDS011;52068;50.710;14.492;2024-02-23T02:25:32;1.77;;;1.67;;
65471;SDS011;52068;50.710;14.492;2024-02-23T02:27:57;2.22;;;1.80;;
65471;SDS011;52068;50.710;14.492;2024-02-23T02:30:23;2.50;;;1.77;;
65471;SDS011;52068;50.710;14.492;2024-02-23T02:32:48;3.55;;;1.98;;
65471;SDS011;52068;50.710;14.492;2024-02-23T02:35:13;1.77;;;1.42;;
65471;SDS011;52068;50.710;14.492;2024-02-23T02:37:39;2.10;;;1.70;;
65471;SDS011;52068;50.710;14.492;2024-02-23T02:40:04;4.45;;;1.67;;
65471;SDS011;52068;50.710;14.492;2024-02-23T02:42:30;2.75;;;1.70;;
65471;SDS011;52068;50.710;14.492;2024-02-23T02:44:56;1.60;;;1.50;;
65471;SDS011;52068;50.710;14.492;2024-02-23T02:47:21;2.17;;;1.60;;
65471;SDS011;52068;50.710;14.492;2024-02-23T02:49:47;1.70;;;1.60;;
65471;SDS011;52068;50.710;14.492;2024-02-23T02:52:13;1.60;;;1.50;;
65471;SDS011;52068;50.710;14.492;2024-02-23T02:54:39;1.67;;;1.40;;
65471;SDS011;52068;50.710;14.492;2024-02-23T02:57:04;3.75;;;1.60;;
65471;SDS011;52068;50.710;14.492;2024-02-23T02:59:33;4.88;;;1.20;;
65471;SDS011;52068;50.710;14.492;2024-02-23T03:01:59;4.80;;;1.58;;
65471;SDS011;52068;50.710;14.492;2024-02-23T03:04:24;2.95;;;1.58;;
65471;SDS011;52068;50.710;14.492;2024-02-23T03:06:49;6.10;;;1.60;;
65471;SDS011;52068;50.710;14.492;2024-02-23T03:09:15;2.40;;;1.25;;
65471;SDS011;52068;50.710;14.492;2024-02-23T03:11:40;2.13;;;1.52;;
65471;SDS011;52068;50.710;14.492;2024-02-23T03:14:06;1.42;;;1.23;;
65471;SDS011;52068;50.710;14.492;2024-02-23T03:16:32;1.80;;;1.30;;
65471;SDS011;52068;50.710;14.492;2024-02-23T03:18:59;2.60;;;1.50;;
65471;SDS011;52068;50.710;14.492;2024-02-23T03:21:24;1.40;;;1.30;;
65471;SDS011;52068;50.710;14.492;2024-02-23T03:23:50;2.05;;;1.40;;
65471;SDS011;52068;50.710;14.492;2024-02-23T03:26:15;3.65;;;1.40;;
65471;SDS011;52068;50.710;14.492;2024-02-23T03:28:42;2.40;;;1.42;;
65471;SDS011;52068;50.710;14.492;2024-02-23T03:31:07;3.75;;;1.10;;
65471;SDS011;52068;50.710;14.492;2024-02-23T03:33:33;1.40;;;1.30;;
65471;SDS011;52068;50.710;14.492;2024-02-23T03:35:58;2.67;;;1.55;;
65471;SDS011;52068;50.710;14.492;2024-02-23T03:38:24;2.72;;;1.10;;
65471;SDS011;52068;50.710;14.492;2024-02-23T03:40:49;1.42;;;1.33;;
65471;SDS011;52068;50.710;14.492;2024-02-23T03:43:14;1.77;;;1.20;;
65471;SDS011;52068;50.710;14.492;2024-02-23T03:45:40;1.38;;;1.27;;
65471;SDS011;52068;50.710;14.492;2024-02-23T03:48:05;2.45;;;1.23;;
65471;SDS011;52068;50.710;14.492;2024-02-23T03:50:31;2.10;;;1.23;;
65471;SDS011;52068;50.710;14.492;2024-02-23T03:52:56;2.03;;;1.30;;
65471;SDS011;52068;50.710;14.492;2024-02-23T03:55:22;1.45;;;1.25;;
65471;SDS011;52068;50.710;14.492;2024-02-23T03:57:47;1.33;;;1.23;;
65471;SDS011;52068;50.710;14.492;2024-02-23T04:00:13;2.05;;;1.20;;
65471;SDS011;52068;50.710;14.492;2024-02-23T04:02:39;1.52;;;1.20;;
65471;SDS011;52068;50.710;14.492;2024-02-23T04:05:05;4.47;;;1.10;;
65471;SDS011;52068;50.710;14.492;2024-02-23T04:07:31;1.52;;;1.30;;
65471;SDS011;52068;50.710;14.492;2024-02-23T04:09:56;3.15;;;1.60;;
65471;SDS011;52068;50.710;14.492;2024-02-23T04:12:22;3.00;;;1.30;;
65471;SDS011;52068;50.710;14.492;2024-02-23T04:14:47;1.42;;;1.33;;
65471;SDS011;52068;50.710;14.492;2024-02-23T04:17:13;3.47;;;1.27;;
65471;SDS011;52068;50.710;14.492;2024-02-23T04:19:39;6.93;;;1.40;;
65471;SDS011;52068;50.710;14.492;2024-02-23T04:22:05;1.33;;;1.23;;
65471;SDS011;52068;50.710;14.492;2024-02-23T04:24:33;4.18;;;1.40;;
65471;SDS011;52068;50.710;14.492;2024-02-23T04:26:59;2.67;;;1.35;;
65471;SDS011;52068;50.710;14.492;2024-02-23T04:29:24;3.42;;;0.98;;
65471;SDS011;52068;50.710;14.492;2024-02-23T04:31:50;1.50;;;1.23;;
65471;SDS011;52068;50.710;14.492;2024-02-23T04:34:15;2.17;;;1.48;;
65471;SDS011;52068;50.710;14.492;2024-02-23T04:36:41;1.92;;;1.10;;
65471;SDS011;52068;50.710;14.492;2024-02-23T04:39:07;4.30;;;1.40;;
65471;SDS011;52068;50.710;14.492;2024-02-23T04:41:32;1.73;;;1.27;;
65471;SDS011;52068;50.710;14.492;2024-02-23T04:43:58;3.17;;;1.30;;
65471;SDS011;52068;50.710;14.492;2024-02-23T04:46:25;3.15;;;1.10;;
65471;SDS011;52068;50.710;14.492;2024-02-23T04:48:51;1.77;;;1.10;;
65471;SDS011;52068;50.710;14.492;2024-02-23T04:51:16;3.33;;;1.13;;
65471;SDS011;52068;50.710;14.492;2024-02-23T04:53:41;1.38;;;0.98;;
65471;SDS011;52068;50.710;14.492;2024-02-23T04:56:07;1.02;;;1.02;;
65471;SDS011;52068;50.710;14.492;2024-02-23T04:58:33;2.60;;;1.20;;
65471;SDS011;52068;50.710;14.492;2024-02-23T05:00:58;1.38;;;1.00;;
65471;SDS011;52068;50.710;14.492;2024-02-23T05:03:23;1.23;;;1.13;;
65471;SDS011;52068;50.710;14.492;2024-02-23T05:05:49;1.45;;;1.20;;
65471;SDS011;52068;50.710;14.492;2024-02-23T05:08:21;1.85;;;1.23;;
65471;SDS011;52068;50.710;14.492;2024-02-23T05:10:49;1.30;;;1.20;;
65471;SDS011;52068;50.710;14.492;2024-02-23T05:13:15;0.85;;;0.85;;
65471;SDS011;52068;50.710;14.492;2024-02-23T05:15:40;1.27;;;1.17;;
65471;SDS011;52068;50.710;14.492;2024-02-23T05:18:05;1.95;;;1.30;;
65471;SDS011;52068;50.710;14.492;2024-02-23T05:20:31;3.97;;;1.05;;
65471;SDS011;52068;50.710;14.492;2024-02-23T05:22:56;4.13;;;1.30;;
65471;SDS011;52068;50.710;14.492;2024-02-23T05:25:22;1.92;;;0.95;;
65471;SDS011;52068;50.710;14.492;2024-02-23T05:27:47;2.67;;;1.08;;
65471;SDS011;52068;50.710;14.492;2024-02-23T05:30:12;1.88;;;1.10;;
65471;SDS011;52068;50.710;14.492;2024-02-23T05:32:38;0.82;;;0.82;;
65471;SDS011;52068;50.710;14.492;2024-02-23T05:35:04;1.55;;;1.08;;
65471;SDS011;52068;50.710;14.492;2024-02-23T05:37:30;1.17;;;1.08;;
65471;SDS011;52068;50.710;14.492;2024-02-23T05:39:55;1.90;;;1.02;;
65471;SDS011;52068;50.710;14.492;2024-02-23T05:42:20;3.90;;;0.98;;
65471;SDS011;52068;50.710;14.492;2024-02-23T05:44:46;1.65;;;0.98;;
65471;SDS011;52068;50.710;14.492;2024-02-23T05:47:13;0.80;;;0.80;;
65471;SDS011;52068;50.710;14.492;2024-02-23T05:49:39;2.28;;;1.20;;
65471;SDS011;52068;50.710;14.492;2024-02-23T05:52:05;1.65;;;0.98;;
65471;SDS011;52068;50.710;14.492;2024-02-23T05:54:30;1.75;;;1.00;;
65471;SDS011;52068;50.710;14.492;2024-02-23T05:56:55;1.10;;;1.00;;
65471;SDS011;52068;50.710;14.492;2024-02-23T05:59:21;13.40;;;1.30;;
65471;SDS011;52068;50.710;14.492;2024-02-23T06:01:47;7.15;;;1.02;;
65471;SDS011;52068;50.710;14.492;2024-02-23T06:04:13;2.20;;;0.77;;
65471;SDS011;52068;50.710;14.492;2024-02-23T06:06:41;1.35;;;1.00;;
65471;SDS011;52068;50.710;14.492;2024-02-23T06:09:07;1.00;;;0.90;;
65471;SDS011;52068;50.710;14.492;2024-02-23T06:11:32;1.67;;;0.98;;
65471;SDS011;52068;50.710;14.492;2024-02-23T06:13:58;1.00;;;0.90;;
65471;SDS011;52068;50.710;14.492;2024-02-23T06:16:23;1.17;;;0.93;;
65471;SDS011;52068;50.710;14.492;2024-02-23T06:18:48;1.38;;;1.05;;
65471;SDS011;52068;50.710;14.492;2024-02-23T06:21:14;8.15;;;1.38;;
65471;SDS011;52068;50.710;14.492;2024-02-23T06:23:40;2.08;;;0.93;;
65471;SDS011;52068;50.710;14.492;2024-02-23T06:26:06;10.65;;;1.10;;
65471;SDS011;52068;50.710;14.492;2024-02-23T06:28:32;7.93;;;1.20;;
65471;SDS011;52068;50.710;14.492;2024-02-23T06:30:58;1.77;;;1.00;;
65471;SDS011;52068;50.710;14.492;2024-02-23T06:33:23;2.83;;;1.10;;
65471;SDS011;52068;50.710;14.492;2024-02-23T06:35:49;3.70;;;1.10;;
65471;SDS011;52068;50.710;14.492;2024-02-23T06:38:14;6.03;;;1.20;;
65471;SDS011;52068;50.710;14.492;2024-02-23T06:40:40;4.35;;;1.27;;
65471;SDS011;52068;50.710;14.492;2024-02-23T06:43:05;5.38;;;1.13;;
65471;SDS011;52068;50.710;14.492;2024-02-23T06:45:30;1.73;;;0.90;;
65471;SDS011;52068;50.710;14.492;2024-02-23T06:47:56;2.53;;;1.30;;
65471;SDS011;52068;50.710;14.492;2024-02-23T06:50:21;1.40;;;1.05;;
65471;SDS011;52068;50.710;14.492;2024-02-23T06:52:47;1.30;;;0.85;;
65471;SDS011;52068;50.710;14.492;2024-02-23T06:55:14;3.22;;;1.23;;
65471;SDS011;52068;50.710;14.492;2024-02-23T06:57:40;2.20;;;1.38;;
65471;SDS011;52068;50.710;14.492;2024-02-23T07:00:05;2.72;;;1.20;;
65471;SDS011;52068;50.710;14.492;2024-02-23T07:02:32;2.67;;;1.27;;
65471;SDS011;52068;50.710;14.492;2024-02-23T07:05:01;4.60;;;1.55;;
65471;SDS011;52068;50.710;14.492;2024-02-23T07:07:29;5.70;;;1.27;;
65471;SDS011;52068;50.710;14.492;2024-02-23T07:09:55;2.00;;;1.20;;
65471;SDS011;52068;50.710;14.492;2024-02-23T07:12:21;1.85;;;1.08;;
65471;SDS011;52068;50.710;14.492;2024-02-23T07:14:46;3.78;;;1.20;;
65471;SDS011;52068;50.710;14.492;2024-02-23T07:17:11;1.85;;;1.02;;
65471;SDS011;52068;50.710;14.492;2024-02-23T07:19:37;1.77;;;1.02;;
65471;SDS011;52068;50.710;14.492;2024-02-23T07:22:02;1.42;;;0.95;;
65471;SDS011;52068;50.710;14.492;2024-02-23T07:24:28;3.78;;;0.85;;
65471;SDS011;52068;50.710;14.492;2024-02-23T07:26:53;2.33;;;1.08;;
65471;SDS011;52068;50.710;14.492;2024-02-23T07:29:18;1.98;;;1.15;;
65471;SDS011;52068;50.710;14.492;2024-02-23T07:31:44;1.63;;;1.05;;
65471;SDS011;52068;50.710;14.492;2024-02-23T07:34:10;2.58;;;1.30;;
65471;SDS011;52068;50.710;14.492;2024-02-23T07:36:35;1.95;;;1.17;;
65471;SDS011;52068;50.710;14.492;2024-02-23T07:39:00;5.32;;;1.38;;
65471;SDS011;52068;50.710;14.492;2024-02-23T07:41:26;5.32;;;1.73;;
65471;SDS011;52068;50.710;14.492;2024-02-23T07:43:51;2.83;;;1.27;;
65471;SDS011;52068;50.710;14.492;2024-02-23T07:46:16;1.45;;;0.80;;
65471;SDS011;52068;50.710;14.492;2024-02-23T07:48:42;2.35;;;1.05;;
65471;SDS011;52068;50.710;14.492;2024-02-23T07:51:07;3.97;;;1.45;;
65471;SDS011;52068;50.710;14.492;2024-02-23T07:53:33;2.63;;;1.08;;
65471;SDS011;52068;50.710;14.492;2024-02-23T07:55:59;1.80;;;1.10;;
65471;SDS011;52068;50.710;14.492;2024-02-23T07:58:27;2.67;;;1.38;;
65471;SDS011;52068;50.710;14.492;2024-02-23T08:00:52;2.30;;;1.13;;
65471;SDS011;52068;50.710;14.492;2024-02-23T08:03:18;3.65;;;1.02;;
65471;SDS011;52068;50.710;14.492;2024-02-23T08:05:44;3.50;;;1.00;;
65471;SDS011;52068;50.710;14.492;2024-02-23T08:08:09;2.40;;;1.10;;
65471;SDS011;52068;50.710;14.492;2024-02-23T08:10:34;2.83;;;1.17;;
65471;SDS011;52068;50.710;14.492;2024-02-23T08:13:00;4.68;;;1.20;;
65471;SDS011;52068;50.710;14.492;2024-02-23T08:15:25;2.97;;;1.13;;
65471;SDS011;52068;50.710;14.492;2024-02-23T08:17:50;2.78;;;0.95;;
65471;SDS011;52068;50.710;14.492;2024-02-23T08:20:16;4.40;;;1.13;;
65471;SDS011;52068;50.710;14.492;2024-02-23T08:22:41;4.97;;;1.30;;
65471;SDS011;52068;50.710;14.492;2024-02-23T08:25:07;2.70;;;1.10;;
65471;SDS011;52068;50.710;14.492;2024-02-23T08:27:33;3.45;;;1.15;;
65471;SDS011;52068;50.710;14.492;2024-02-23T08:29:59;2.17;;;1.00;;
65471;SDS011;52068;50.710;14.492;2024-02-23T08:32:24;1.80;;;1.00;;
65471;SDS011;52068;50.710;14.492;2024-02-23T08:34:50;2.47;;;1.08;;
65471;SDS011;52068;50.710;14.492;2024-02-23T08:37:17;2.25;;;1.00;;
65471;SDS011;52068;50.710;14.492;2024-02-23T08:39:43;6.38;;;1.38;;
65471;SDS011;52068;50.710;14.492;2024-02-23T08:42:09;1.23;;;1.10;;
65471;SDS011;52068;50.710;14.492;2024-02-23T08:44:35;5.32;;;1.25;;
65471;SDS011;52068;50.710;14.492;2024-02-23T08:47:00;1.48;;;0.93;;
65471;SDS011;52068;50.710;14.492;2024-02-23T08:49:27;5.43;;;1.30;;
65471;SDS011;52068;50.710;14.492;2024-02-23T08:51:52;2.30;;;1.23;;
65471;SDS011;52068;50.710;14.492;2024-02-23T08:54:17;2.88;;;1.10;;
65471;SDS011;52068;50.710;14.492;2024-02-23T08:56:43;1.77;;;0.90;;
65471;SDS011;52068;50.710;14.492;2024-02-23T08:59:08;2.10;;;1.20;;
65471;SDS011;52068;50.710;14.492;2024-02-23T09:01:34;1.15;;;0.82;;
65471;SDS011;52068;50.710;14.492;2024-02-23T09:04:00;2.15;;;1.30;;
65471;SDS011;52068;50.710;14.492;2024-02-23T09:06:25;2.72;;;1.05;;
65471;SDS011;52068;50.710;14.492;2024-02-23T09:08:51;3.15;;;1.30;;
65471;SDS011;52068;50.710;14.492;2024-02-23T09:11:16;3.42;;;1.00;;
65471;SDS011;52068;50.710;14.492;2024-02-23T09:13:42;2.35;;;1.20;;
65471;SDS011;52068;50.710;14.492;2024-02-23T09:16:07;1.25;;;0.82;;
65471;SDS011;52068;50.710;14.492;2024-02-23T09:18:34;1.77;;;0.90;;
65471;SDS011;52068;50.710;14.492;2024-02-23T09:20:59;1.88;;;1.00;;
65471;SDS011;52068;50.710;14.492;2024-02-23T09:23:25;3.45;;;0.95;;
65471;SDS011;52068;50.710;14.492;2024-02-23T09:25:51;1.73;;;1.00;;
65471;SDS011;52068;50.710;14.492;2024-02-23T09:28:16;1.75;;;1.02;;
65471;SDS011;52068;50.710;14.492;2024-02-23T09:30:41;1.35;;;1.00;;
65471;SDS011;52068;50.710;14.492;2024-02-23T09:33:07;0.98;;;0.73;;
65471;SDS011;52068;50.710;14.492;2024-02-23T09:35:33;2.42;;;1.10;;
65471;SDS011;52068;50.710;14.492;2024-02-23T09:37:58;1.55;;;0.88;;
65471;SDS011;52068;50.710;14.492;2024-02-23T09:40:24;2.10;;;0.82;;
65471;SDS011;52068;50.710;14.492;2024-02-23T09:42:51;3.33;;;0.90;;
65471;SDS011;52068;50.710;14.492;2024-02-23T09:45:22;1.20;;;0.93;;
65471;SDS011;52068;50.710;14.492;2024-02-23T09:47:49;1.98;;;0.93;;
65471;SDS011;52068;50.710;14.492;2024-02-23T09:50:14;2.03;;;0.85;;
65471;SDS011;52068;50.710;14.492;2024-02-23T09:52:40;1.48;;;0.80;;
65471;SDS011;52068;50.710;14.492;2024-02-23T09:55:06;2.15;;;0.90;;
65471;SDS011;52068;50.710;14.492;2024-02-23T09:57:31;2.58;;;0.90;;
65471;SDS011;52068;50.710;14.492;2024-02-23T09:59:58;1.85;;;0.80;;
65471;SDS011;52068;50.710;14.492;2024-02-23T10:02:23;2.33;;;0.88;;
65471;SDS011;52068;50.710;14.492;2024-02-23T10:04:50;1.00;;;0.80;;
65471;SDS011;52068;50.710;14.492;2024-02-23T10:07:17;1.02;;;0.70;;
65471;SDS011;52068;50.710;14.492;2024-02-23T10:09:42;1.58;;;0.70;;
65471;SDS011;52068;50.710;14.492;2024-02-23T10:12:07;2.00;;;0.77;;
65471;SDS011;52068;50.710;14.492;2024-02-23T10:14:33;1.02;;;0.80;;
65471;SDS011;52068;50.710;14.492;2024-02-23T10:16:59;1.40;;;0.85;;
65471;SDS011;52068;50.710;14.492;2024-02-23T10:19:25;0.90;;;0.90;;
65471;SDS011;52068;50.710;14.492;2024-02-23T10:21:54;2.05;;;0.82;;
65471;SDS011;52068;50.710;14.492;2024-02-23T10:24:20;0.82;;;0.63;;
65471;SDS011;52068;50.710;14.492;2024-02-23T10:26:45;2.42;;;0.80;;
65471;SDS011;52068;50.710;14.492;2024-02-23T10:29:11;1.33;;;0.80;;
65471;SDS011;52068;50.710;14.492;2024-02-23T10:31:37;1.65;;;0.75;;
65471;SDS011;52068;50.710;14.492;2024-02-23T10:34:06;1.40;;;0.90;;
65471;SDS011;52068;50.710;14.492;2024-02-23T10:36:41;2.05;;;1.00;;
65471;SDS011;52068;50.710;14.492;2024-02-23T10:39:13;1.20;;;0.65;;
65471;SDS011;52068;50.710;14.492;2024-02-23T10:41:46;1.33;;;0.73;;
65471;SDS011;52068;50.710;14.492;2024-02-23T10:44:13;1.30;;;0.80;;
65471;SDS011;52068;50.710;14.492;2024-02-23T10:46:41;1.58;;;0.98;;
65471;SDS011;52068;50.710;14.492;2024-02-23T10:49:07;1.35;;;0.88;;
65471;SDS011;52068;50.710;14.492;2024-02-23T10:51:33;0.75;;;0.70;;
65471;SDS011;52068;50.710;14.492;2024-02-23T10:53:58;0.95;;;0.63;;
65471;SDS011;52068;50.710;14.492;2024-02-23T10:56:24;1.55;;;0.88;;
65471;SDS011;52068;50.710;14.492;2024-02-23T10:58:51;2.05;;;0.88;;
65471;SDS011;52068;50.710;14.492;2024-02-23T11:01:16;2.30;;;0.88;;
65471;SDS011;52068;50.710;14.492;2024-02-23T11:03:43;1.02;;;0.60;;
65471;SDS011;52068;50.710;14.492;2024-02-23T11:06:13;1.00;;;0.60;;
65471;SDS011;52068;50.710;14.492;2024-02-23T11:08:38;1.38;;;0.70;;
65471;SDS011;52068;50.710;14.492;2024-02-23T11:11:10;0.63;;;0.50;;
65471;SDS011;52068;50.710;14.492;2024-02-23T11:13:37;1.88;;;0.80;;
65471;SDS011;52068;50.710;14.492;2024-02-23T11:16:03;1.55;;;0.73;;
65471;SDS011;52068;50.710;14.492;2024-02-23T11:18:29;1.30;;;0.70;;
65471;SDS011;52068;50.710;14.492;2024-02-23T11:21:00;0.70;;;0.57;;
65471;SDS011;52068;50.710;14.492;2024-02-23T11:23:44;0.80;;;0.65;;
65471;SDS011;52068;50.710;14.492;2024-02-23T11:26:13;1.35;;;0.80;;
65471;SDS011;52068;50.710;14.492;2024-02-23T11:28:48;1.17;;;0.47;;
65471;SDS011;52068;50.710;14.492;2024-02-23T11:31:28;1.17;;;0.70;;
65471;SDS011;52068;50.710;14.492;2024-02-23T11:33:55;2.65;;;1.00;;
65471;SDS011;52068;50.710;14.492;2024-02-23T11:36:28;1.63;;;0.60;;
65471;SDS011;52068;50.710;14.492;2024-02-23T11:38:56;1.25;;;0.80;;
65471;SDS011;52068;50.710;14.492;2024-02-23T11:41:23;1.35;;;0.75;;
65471;SDS011;52068;50.710;14.492;2024-02-23T11:43:49;1.13;;;0.80;;
65471;SDS011;52068;50.710;14.492;2024-02-23T11:46:16;2.03;;;0.68;;
65471;SDS011;52068;50.710;14.492;2024-02-23T11:48:42;1.33;;;0.70;;
65471;SDS011;52068;50.710;14.492;2024-02-23T11:51:08;0.75;;;0.55;;
65471;SDS011;52068;50.710;14.492;2024-02-23T11:53:34;0.75;;;0.60;;
65471;SDS011;52068;50.710;14.492;2024-02-23T11:56:01;1.20;;;0.73;;
65471;SDS011;52068;50.710;14.492;2024-02-23T11:58:27;1.30;;;0.80;;
65471;SDS011;52068;50.710;14.492;2024-02-23T12:00:52;1.52;;;0.82;;
65471;SDS011;52068;50.710;14.492;2024-02-23T12:03:18;0.63;;;0.50;;
65471;SDS011;52068;50.710;14.492;2024-02-23T12:05:43;0.70;;;0.70;;
65471;SDS011;52068;50.710;14.492;2024-02-23T12:08:08;0.93;;;0.75;;
65471;SDS011;52068;50.710;14.492;2024-02-23T12:10:34;1.65;;;0.75;;
65471;SDS011;52068;50.710;14.492;2024-02-23T12:12:59;0.85;;;0.60;;
65471;SDS011;52068;50.710;14.492;2024-02-23T12:15:25;1.13;;;0.90;;
65471;SDS011;52068;50.710;14.492;2024-02-23T12:17:50;0.90;;;0.70;;
65471;SDS011;52068;50.710;14.492;2024-02-23T12:20:16;1.40;;;0.80;;
65471;SDS011;52068;50.710;14.492;2024-02-23T12:22:42;1.40;;;0.70;;
65471;SDS011;52068;50.710;14.492;2024-02-23T12:25:07;1.55;;;0.70;;
65471;SDS011;52068;50.710;14.492;2024-02-23T12:27:33;0.52;;;0.50;;
65471;SDS011;52068;50.710;14.492;2024-02-23T12:29:58;0.60;;;0.50;;
65471;SDS011;52068;50.710;14.492;2024-02-23T12:32:24;0.88;;;0.63;;
65471;SDS011;52068;50.710;14.492;2024-02-23T12:34:50;0.65;;;0.60;;
65471;SDS011;52068;50.710;14.492;2024-02-23T12:37:16;0.73;;;0.68;;
65471;SDS011;52068;50.710;14.492;2024-02-23T12:39:43;1.02;;;0.75;;
65471;SDS011;52068;50.710;14.492;2024-02-23T12:42:08;0.85;;;0.50;;
65471;SDS011;52068;50.710;14.492;2024-02-23T12:44:34;0.63;;;0.60;;
65471;SDS011;52068;50.710;14.492;2024-02-23T12:46:59;0.80;;;0.60;;
65471;SDS011;52068;50.710;14.492;2024-02-23T12:49:25;0.98;;;0.80;;
65471;SDS011;52068;50.710;14.492;2024-02-23T12:51:50;2.55;;;0.90;;
65471;SDS011;52068;50.710;14.492;2024-02-23T12:54:16;1.80;;;0.82;;
65471;SDS011;52068;50.710;14.492;2024-02-23T12:56:41;1.90;;;0.57;;
65471;SDS011;52068;50.710;14.492;2024-02-23T12:59:07;1.33;;;1.00;;
65471;SDS011;52068;50.710;14.492;2024-02-23T13:01:34;5.45;;;1.50;;
65471;SDS011;52068;50.710;14.492;2024-02-23T13:04:02;2.15;;;0.88;;
65471;SDS011;52068;50.710;14.492;2024-02-23T13:06:28;4.50;;;1.30;;
65471;SDS011;52068;50.710;14.492;2024-02-23T13:08:53;1.67;;;0.95;;
65471;SDS011;52068;50.710;14.492;2024-02-23T13:11:19;2.72;;;1.10;;
65471;SDS011;52068;50.710;14.492;2024-02-23T13:13:44;6.28;;;1.30;;
65471;SDS011;52068;50.710;14.492;2024-02-23T13:16:10;4.57;;;1.10;;
65471;SDS011;52068;50.710;14.492;2024-02-23T13:18:35;4.40;;;1.10;;
65471;SDS011;52068;50.710;14.492;2024-02-23T13:21:01;2.83;;;1.27;;
65471;SDS011;52068;50.710;14.492;2024-02-23T13:23:26;6.00;;;1.55;;
65471;SDS011;52068;50.710;14.492;2024-02-23T13:25:51;5.53;;;1.55;;
65471;SDS011;52068;50.710;14.492;2024-02-23T13:28:17;5.07;;;1.33;;
65471;SDS011;52068;50.710;14.492;2024-02-23T13:30:42;5.63;;;1.75;;
65471;SDS011;52068;50.710;14.492;2024-02-23T13:33:08;5.28;;;1.70;;
65471;SDS011;52068;50.710;14.492;2024-02-23T13:35:36;5.95;;;2.05;;
65471;SDS011;52068;50.710;14.492;2024-02-23T13:38:01;4.60;;;1.45;;
65471;SDS011;52068;50.710;14.492;2024-02-23T13:40:29;3.42;;;1.30;;
65471;SDS011;52068;50.710;14.492;2024-02-23T13:42:56;4.40;;;1.40;;
65471;SDS011;52068;50.710;14.492;2024-02-23T13:45:21;3.65;;;1.55;;
65471;SDS011;52068;50.710;14.492;2024-02-23T13:47:59;6.95;;;1.85;;
65471;SDS011;52068;50.710;14.492;2024-02-23T13:50:25;4.38;;;1.52;;
65471;SDS011;52068;50.710;14.492;2024-02-23T13:52:51;4.40;;;1.60;;
65471;SDS011;52068;50.710;14.492;2024-02-23T13:55:17;4.57;;;1.60;;
65471;SDS011;52068;50.710;14.492;2024-02-23T13:57:44;6.35;;;1.58;;
65471;SDS011;52068;50.710;14.492;2024-02-23T14:00:09;5.30;;;1.75;;
65471;SDS011;52068;50.710;14.492;2024-02-23T14:02:37;4.40;;;1.75;;
65471;SDS011;52068;50.710;14.492;2024-02-23T14:05:05;5.45;;;1.70;;
65471;SDS011;52068;50.710;14.492;2024-02-23T14:07:32;4.70;;;1.60;;
65471;SDS011;52068;50.710;14.492;2024-02-23T14:09:57;4.95;;;1.38;;
65471;SDS011;52068;50.710;14.492;2024-02-23T14:12:23;3.30;;;1.40;;
65471;SDS011;52068;50.710;14.492;2024-02-23T14:14:49;7.18;;;1.80;;
65471;SDS011;52068;50.710;14.492;2024-02-23T14:17:14;3.25;;;1.15;;
65471;SDS011;52068;50.710;14.492;2024-02-23T14:19:39;3.47;;;1.50;;
65471;SDS011;52068;50.710;14.492;2024-02-23T14:22:05;6.35;;;1.85;;
65471;SDS011;52068;50.710;14.492;2024-02-23T14:24:30;4.45;;;1.42;;
65471;SDS011;52068;50.710;14.492;2024-02-23T14:26:55;7.93;;;1.67;;